Plainview, Nebraska
Current Conditions -  °F | °C
As of 11:56 PM on Tuesday 21 Oct 2014 (Local Time) from KOFK Reporting Station
Clear Clear  
Wind Chill: 60°   Ceiling: Unl
Heat Index: 60°   Visibility: 10mi
Dew Point: 39°   Wind: 15mph
Humidity: 46%   Direction: 140°SE
Pressure: 30"   Gusts: NA
Location:  42.35°N, 97.79°W
Report Text: KOFK 220456Z AUTO 14013KT 10SM CLR 16/04 A3000 RMK AO2 SLP151 T01560039
Loading
Personal Weather Stations






























Interactive Weather Map
Tropical Storm Tracking
New forecast layout! Learn more

10-Day Weather Forecast

Advertisements
Track Severe Weather on mobile